createdAt,value
2022-12-26T00:02:00.496Z,15.70
2022-12-26T00:04:51.274Z,17.70
2022-12-26T00:07:15.755Z,20.00
2022-12-26T00:09:43.402Z,21.30
2022-12-26T00:12:11.013Z,23.90
2022-12-26T00:14:39.023Z,15.70
2022-12-26T00:17:06.711Z,16.90
2022-12-26T00:19:34.394Z,24.40
2022-12-26T00:22:02.132Z,18.30
2022-12-26T00:24:29.888Z,17.00
2022-12-26T00:26:57.496Z,24.20
2022-12-26T00:29:25.175Z,15.50
2022-12-26T00:31:53.456Z,22.30
2022-12-26T00:34:21.395Z,12.70
2022-12-26T00:36:50.167Z,20.10
2022-12-26T00:39:17.828Z,19.00
2022-12-26T00:41:45.567Z,20.50
2022-12-26T00:44:13.238Z,22.00
2022-12-26T00:46:40.962Z,18.80
2022-12-26T00:49:08.739Z,14.50
2022-12-26T00:51:36.322Z,25.60
2022-12-26T00:54:04.050Z,15.80
2022-12-26T00:56:31.714Z,14.40
2022-12-26T00:58:59.410Z,18.60
2022-12-26T01:01:30.911Z,15.80
2022-12-26T01:03:58.753Z,22.80
2022-12-26T01:06:26.348Z,20.50
2022-12-26T01:08:54.426Z,19.60
2022-12-26T01:11:40.826Z,20.40
2022-12-26T01:14:14.918Z,22.70
2022-12-26T01:16:44.218Z,17.50
2022-12-26T01:19:12.996Z,17.70
2022-12-26T01:21:43.095Z,21.90
2022-12-26T01:24:11.100Z,28.70
2022-12-26T01:26:38.888Z,22.30
2022-12-26T01:29:06.546Z,21.90
2022-12-26T01:31:34.241Z,26.50
2022-12-26T01:34:01.920Z,19.00
2022-12-26T01:36:29.623Z,17.90
2022-12-26T01:38:57.219Z,20.60
2022-12-26T01:41:24.859Z,31.00
2022-12-26T01:44:05.146Z,17.90
2022-12-26T01:46:38.797Z,15.90
2022-12-26T01:49:17.431Z,18.60
2022-12-26T01:51:50.936Z,15.40
2022-12-26T01:54:39.645Z,20.30
2022-12-26T01:57:13.252Z,18.00
2022-12-26T01:59:42.164Z,19.60
2022-12-26T02:02:11.768Z,22.10
2022-12-26T02:05:02.697Z,20.20
2022-12-26T02:07:33.613Z,19.80
2022-12-26T02:10:01.555Z,20.00
2022-12-26T02:12:38.875Z,18.00
2022-12-26T02:15:13.427Z,17.40
2022-12-26T02:17:41.948Z,12.00
2022-12-26T02:20:33.922Z,18.80
2022-12-26T02:23:20.542Z,18.90
2022-12-26T02:26:11.144Z,18.40
2022-12-26T02:29:02.577Z,11.10
2022-12-26T02:31:56.327Z,15.80
2022-12-26T02:34:46.509Z,16.60
2022-12-26T02:37:29.783Z,18.20
2022-12-26T02:40:27.092Z,15.30
2022-12-26T02:43:17.723Z,19.00
2022-12-26T02:46:23.923Z,16.30
2022-12-26T02:49:14.651Z,17.80
2022-12-26T02:52:37.506Z,17.90
2022-12-26T02:55:28.787Z,14.90
2022-12-26T02:58:31.286Z,15.90
2022-12-26T03:01:22.883Z,15.00
2022-12-26T03:04:11.970Z,14.50
2022-12-26T03:07:03.980Z,14.60
2022-12-26T03:09:53.205Z,14.80
2022-12-26T03:12:39.500Z,13.40
2022-12-26T03:15:10.729Z,12.60
2022-12-26T03:17:38.277Z,15.60
2022-12-26T03:20:15.741Z,14.10
2022-12-26T03:22:54.884Z,9.80
2022-12-26T03:26:20.975Z,14.10
2022-12-26T03:28:50.068Z,11.40
2022-12-26T03:31:17.783Z,11.90
2022-12-26T03:34:05.903Z,8.50
2022-12-26T03:36:52.465Z,11.90
2022-12-26T03:39:59.704Z,10.10
2022-12-26T03:42:53.082Z,12.60
2022-12-26T03:45:46.797Z,14.80
2022-12-26T03:48:56.480Z,12.80
2022-12-26T03:52:13.025Z,10.00
2022-12-26T03:55:02.611Z,13.90
2022-12-26T03:58:02.843Z,14.50
2022-12-26T04:00:50.251Z,11.40
2022-12-26T04:03:39.036Z,14.70
2022-12-26T04:06:34.971Z,16.80
2022-12-26T04:09:27.462Z,14.70
2022-12-26T04:12:16.734Z,13.80
2022-12-26T04:15:15.243Z,9.10
2022-12-26T04:18:18.211Z,11.70
2022-12-26T04:21:00.980Z,7.50
2022-12-26T04:23:56.087Z,13.40
2022-12-26T04:26:51.289Z,7.10
2022-12-26T04:29:37.680Z,10.30
2022-12-26T04:32:32.883Z,19.30
2022-12-26T04:35:26.815Z,13.60
2022-12-26T04:38:16.573Z,11.20
2022-12-26T04:41:08.219Z,11.70
2022-12-26T04:43:55.121Z,10.80
2022-12-26T04:46:25.946Z,13.10
2022-12-26T04:49:14.115Z,6.70
2022-12-26T04:51:42.011Z,10.30
2022-12-26T04:54:09.789Z,8.10
2022-12-26T04:56:38.341Z,10.30
2022-12-26T04:59:06.017Z,11.70
2022-12-26T05:01:52.538Z,11.90
2022-12-26T05:04:38.863Z,7.30
2022-12-26T05:07:49.502Z,9.70
2022-12-26T05:10:23.881Z,9.30
2022-12-26T05:12:52.529Z,11.40
2022-12-26T05:15:21.154Z,4.70
2022-12-26T05:18:07.495Z,12.50
2022-12-26T05:20:53.689Z,8.60
2022-12-26T05:23:43.535Z,8.90
2022-12-26T05:26:38.845Z,10.90
2022-12-26T05:29:06.952Z,6.80
2022-12-26T05:31:36.449Z,13.60
2022-12-26T05:34:06.464Z,10.40
2022-12-26T05:36:56.588Z,9.10
2022-12-26T05:39:25.159Z,13.00
2022-12-26T05:41:52.913Z,7.70
2022-12-26T05:44:20.539Z,9.50
2022-12-26T05:46:48.632Z,10.50
2022-12-26T05:49:16.431Z,8.50
2022-12-26T05:51:44.076Z,8.10
2022-12-26T05:54:11.672Z,8.80
2022-12-26T05:56:42.963Z,9.90
2022-12-26T05:59:13.509Z,10.50
2022-12-26T06:01:41.175Z,9.10
2022-12-26T06:04:08.990Z,8.70
2022-12-26T06:06:36.579Z,8.20
2022-12-26T06:09:04.177Z,11.00
2022-12-26T06:11:31.835Z,12.30
2022-12-26T06:14:00.259Z,9.40
2022-12-26T06:16:28.297Z,10.50
2022-12-26T06:18:56.189Z,11.20
2022-12-26T06:21:24.215Z,9.10
2022-12-26T06:23:52.024Z,12.90
2022-12-26T06:26:19.658Z,11.90
2022-12-26T06:28:47.573Z,7.40
2022-12-26T06:31:22.192Z,10.90
2022-12-26T06:33:52.390Z,10.90
2022-12-26T06:36:23.707Z,9.20
2022-12-26T06:38:52.390Z,7.90
2022-12-26T06:41:22.644Z,8.00
2022-12-26T06:43:50.941Z,10.40
2022-12-26T06:46:24.300Z,7.90
2022-12-26T06:48:52.662Z,11.30
2022-12-26T06:51:24.318Z,10.70
2022-12-26T06:53:53.099Z,11.00
2022-12-26T06:56:26.326Z,12.30
2022-12-26T06:58:55.296Z,16.70
2022-12-26T07:01:24.124Z,13.40
2022-12-26T07:03:54.152Z,13.30
2022-12-26T07:06:25.659Z,14.00
2022-12-26T07:08:56.214Z,14.70
2022-12-26T07:11:26.465Z,17.20
2022-12-26T07:13:55.758Z,15.20
2022-12-26T07:16:23.884Z,13.50
2022-12-26T07:18:56.425Z,14.40
2022-12-26T07:21:25.857Z,10.50
2022-12-26T07:23:55.113Z,12.80
2022-12-26T07:26:24.205Z,11.40
2022-12-26T07:28:56.620Z,13.50
2022-12-26T07:31:25.564Z,18.00
2022-12-26T07:33:54.880Z,17.30
2022-12-26T07:36:24.944Z,14.10
2022-12-26T07:38:52.693Z,18.40
2022-12-26T07:41:39.122Z,12.80
2022-12-26T07:44:07.260Z,14.40
2022-12-26T07:46:35.039Z,17.50
2022-12-26T07:49:03.379Z,10.70
2022-12-26T07:51:31.116Z,18.20
2022-12-26T07:53:58.836Z,13.80
2022-12-26T07:56:26.599Z,13.10
2022-12-26T07:58:54.296Z,14.50
2022-12-26T08:01:22.015Z,19.20
2022-12-26T08:03:49.988Z,12.30
2022-12-26T08:06:19.044Z,14.90
2022-12-26T08:08:51.119Z,13.00
2022-12-26T08:11:22.583Z,18.90
2022-12-26T08:13:51.782Z,12.70
2022-12-26T08:16:20.308Z,16.40
2022-12-26T08:18:48.024Z,14.20
2022-12-26T08:21:16.235Z,13.30
2022-12-26T08:23:43.859Z,14.30
2022-12-26T08:26:13.029Z,15.20
2022-12-26T08:28:42.835Z,24.40
2022-12-26T08:31:12.670Z,15.40
2022-12-26T08:33:40.450Z,14.20
2022-12-26T08:36:10.656Z,17.10
2022-12-26T08:38:40.252Z,13.70
2022-12-26T08:46:24.198Z,14.70
2022-12-26T08:48:52.019Z,14.90
2022-12-26T08:51:24.588Z,12.90
2022-12-26T08:53:55.028Z,13.10
2022-12-26T08:56:25.351Z,13.40
2022-12-26T08:58:53.063Z,14.50
2022-12-26T09:01:25.886Z,16.80
2022-12-26T09:03:56.623Z,14.70
2022-12-26T09:06:24.757Z,12.40
2022-12-26T09:08:53.003Z,12.30
2022-12-26T09:11:28.690Z,12.00
2022-12-26T09:16:32.736Z,13.60
2022-12-26T09:19:05.023Z,11.70
2022-12-26T09:21:33.269Z,14.10
2022-12-26T09:24:03.576Z,9.50
2022-12-26T09:26:32.084Z,8.30
2022-12-26T09:29:00.395Z,10.90
2022-12-26T09:31:30.285Z,12.90
2022-12-26T09:33:58.313Z,10.50
2022-12-26T09:36:29.667Z,8.10
2022-12-26T09:38:58.270Z,11.40
2022-12-26T09:41:51.869Z,10.30
2022-12-26T09:44:31.935Z,14.10
2022-12-26T09:47:18.007Z,15.80
2022-12-26T09:49:51.733Z,14.10
2022-12-26T09:52:23.328Z,14.00
2022-12-26T09:54:54.543Z,15.50
2022-12-26T09:57:34.140Z,15.60
2022-12-26T10:00:06.141Z,12.40
2022-12-26T10:02:40.385Z,12.00
2022-12-26T10:05:12.924Z,9.40
2022-12-26T10:07:50.626Z,15.00
2022-12-26T10:10:35.733Z,11.70
2022-12-26T10:13:33.916Z,10.50
2022-12-26T10:16:21.928Z,11.30
2022-12-26T10:21:37.114Z,9.70
2022-12-26T10:24:14.425Z,12.10
2022-12-26T10:26:49.758Z,13.40
2022-12-26T10:29:24.193Z,14.90
2022-12-26T10:32:06.611Z,14.30
2022-12-26T10:34:42.213Z,13.30
2022-12-26T10:37:35.252Z,9.70
2022-12-26T10:40:20.165Z,11.30
2022-12-26T10:42:57.162Z,10.40
2022-12-26T10:45:36.725Z,9.00
2022-12-26T10:48:04.678Z,8.40
2022-12-26T10:50:37.733Z,10.30
2022-12-26T10:53:07.649Z,10.70
2022-12-26T10:55:35.774Z,10.30
2022-12-26T10:58:12.008Z,10.40
2022-12-26T11:00:39.621Z,13.30
2022-12-26T11:03:17.992Z,10.80
2022-12-26T11:06:07.518Z,6.30
2022-12-26T11:08:47.391Z,8.40
2022-12-26T11:11:15.050Z,7.50
2022-12-26T11:14:02.315Z,11.00
2022-12-26T11:16:35.472Z,9.40
2022-12-26T11:19:03.902Z,9.80
2022-12-26T11:21:32.967Z,10.70
2022-12-26T11:24:09.563Z,9.70
2022-12-26T11:26:38.339Z,7.60
2022-12-26T11:29:14.884Z,6.70
2022-12-26T11:31:59.088Z,10.20
2022-12-26T11:34:47.905Z,9.10
2022-12-26T11:37:29.074Z,8.30
2022-12-26T11:39:57.866Z,8.90
2022-12-26T11:42:26.927Z,9.50
2022-12-26T11:44:57.754Z,10.50
2022-12-26T11:47:29.372Z,6.20
2022-12-26T11:50:06.342Z,10.20
2022-12-26T11:52:56.829Z,10.50
2022-12-26T11:55:33.453Z,9.70
2022-12-26T11:58:10.068Z,9.80
2022-12-26T12:01:02.408Z,8.00
2022-12-26T12:03:38.122Z,9.90
2022-12-26T12:06:47.229Z,8.30
2022-12-26T12:09:23.926Z,9.30
2022-12-26T12:12:13.349Z,10.20
2022-12-26T12:15:22.847Z,8.40
2022-12-26T12:18:24.542Z,9.30
2022-12-26T12:21:14.959Z,8.80
2022-12-26T12:24:03.183Z,9.10
2022-12-26T12:26:50.989Z,9.10
2022-12-26T12:29:45.647Z,8.50
2022-12-26T12:32:34.220Z,9.60
2022-12-26T12:35:33.396Z,10.90
2022-12-26T12:38:38.225Z,12.60
2022-12-26T12:41:08.859Z,9.50
2022-12-26T12:43:58.464Z,9.80
2022-12-26T12:46:32.265Z,12.90
2022-12-26T12:49:18.494Z,9.30
2022-12-26T12:51:51.045Z,7.00
2022-12-26T12:54:39.330Z,8.40
2022-12-26T12:57:21.247Z,8.50
2022-12-26T12:59:57.655Z,9.30
2022-12-26T13:02:31.297Z,7.90
2022-12-26T13:05:20.934Z,7.20
2022-12-26T13:07:57.985Z,7.30
2022-12-26T13:10:38.271Z,6.80
2022-12-26T13:13:20.159Z,6.90
2022-12-26T13:15:51.518Z,7.10
2022-12-26T13:18:23.759Z,7.70
2022-12-26T13:20:59.690Z,9.40
2022-12-26T13:23:54.903Z,6.60
2022-12-26T13:26:27.606Z,9.20
2022-12-26T13:29:04.050Z,9.60
2022-12-26T13:31:36.317Z,8.00
2022-12-26T13:34:08.180Z,5.70
2022-12-26T13:36:44.029Z,7.20
2022-12-26T13:39:27.149Z,8.70
2022-12-26T13:42:36.573Z,7.30
2022-12-26T13:45:39.180Z,7.20
2022-12-26T13:48:15.943Z,9.50
2022-12-26T13:50:55.287Z,8.20
2022-12-26T13:53:26.855Z,8.10
2022-12-26T13:55:55.858Z,8.00
2022-12-26T13:58:45.459Z,9.20
2022-12-26T14:01:36.120Z,9.80
2022-12-26T14:04:22.821Z,8.70
2022-12-26T14:07:11.736Z,10.10
2022-12-26T14:09:51.351Z,8.90
2022-12-26T14:12:35.012Z,6.90
2022-12-26T14:15:29.667Z,8.10
2022-12-26T14:18:18.395Z,8.80
2022-12-26T14:21:01.207Z,9.70
2022-12-26T14:23:54.461Z,7.90
2022-12-26T14:26:40.078Z,11.00
2022-12-26T14:29:32.688Z,8.50
2022-12-26T14:32:06.306Z,6.50
2022-12-26T14:34:55.201Z,8.10
2022-12-26T14:37:44.604Z,7.70
2022-12-26T14:40:29.480Z,7.70
2022-12-26T14:43:12.692Z,9.50
2022-12-26T14:45:42.456Z,8.80
2022-12-26T14:48:15.909Z,7.80
2022-12-26T14:50:43.880Z,7.50
2022-12-26T14:53:29.597Z,9.50
2022-12-26T14:56:14.088Z,9.70
2022-12-26T14:58:51.737Z,8.60
2022-12-26T15:01:22.350Z,7.40
2022-12-26T15:04:17.916Z,7.40
2022-12-26T15:07:05.094Z,7.60
2022-12-26T15:09:53.928Z,7.00
2022-12-26T15:12:58.993Z,6.90
2022-12-26T15:15:35.203Z,7.20
2022-12-26T15:18:14.041Z,8.30
2022-12-26T15:20:53.139Z,6.00
2022-12-26T15:23:47.749Z,6.80
2022-12-26T15:26:34.812Z,6.50
2022-12-26T15:29:31.970Z,7.00
2022-12-26T15:32:16.836Z,8.90
2022-12-26T15:34:59.517Z,7.50
2022-12-26T15:37:57.580Z,7.90
2022-12-26T15:40:29.865Z,7.40
2022-12-26T15:43:19.174Z,5.70
2022-12-26T15:46:26.666Z,5.60
2022-12-26T15:49:13.928Z,6.00
2022-12-26T15:52:02.787Z,6.50
2022-12-26T15:55:08.563Z,4.60
2022-12-26T15:57:36.301Z,7.50
2022-12-26T16:00:13.186Z,6.70
2022-12-26T16:03:19.072Z,7.70
2022-12-26T16:05:56.180Z,7.20
2022-12-26T16:08:32.803Z,7.10
2022-12-26T16:11:24.507Z,6.00
2022-12-26T16:13:57.283Z,6.60
2022-12-26T16:16:26.355Z,7.70
2022-12-26T16:18:54.223Z,8.30
2022-12-26T16:21:46.316Z,7.00
2022-12-26T16:24:17.534Z,5.30
2022-12-26T16:26:47.042Z,6.80
2022-12-26T16:31:47.292Z,6.50
2022-12-26T16:34:19.194Z,8.80
2022-12-26T16:36:51.018Z,7.70
2022-12-26T16:39:23.320Z,7.10
2022-12-26T16:42:27.687Z,6.20
2022-12-26T16:44:55.937Z,9.70
2022-12-26T16:47:24.749Z,7.40
2022-12-26T16:49:53.439Z,7.50
2022-12-26T16:52:30.105Z,8.80
2022-12-26T16:54:57.874Z,8.70
2022-12-26T16:57:26.139Z,8.70
2022-12-26T16:59:59.220Z,9.70
2022-12-26T17:02:33.725Z,8.60
2022-12-26T17:05:21.823Z,9.60
2022-12-26T17:10:49.115Z,9.90
2022-12-26T17:13:26.139Z,9.20
2022-12-26T17:16:01.261Z,8.40
2022-12-26T17:18:45.856Z,10.30
2022-12-26T17:21:18.251Z,8.10
2022-12-26T17:23:58.562Z,8.80
2022-12-26T17:26:29.393Z,7.50
2022-12-26T17:28:57.206Z,8.90
2022-12-26T17:31:35.608Z,7.40
2022-12-26T17:34:26.570Z,10.60
2022-12-26T17:39:42.635Z,11.30
2022-12-26T17:42:12.797Z,9.20
2022-12-26T17:44:45.879Z,12.70
2022-12-26T17:47:28.631Z,11.50
2022-12-26T17:49:57.313Z,12.60
2022-12-26T17:52:29.203Z,12.00
2022-12-26T17:54:58.208Z,9.60
2022-12-26T17:57:28.239Z,9.60
2022-12-26T17:59:56.526Z,11.50
2022-12-26T18:02:24.855Z,12.10
2022-12-26T18:04:53.970Z,11.20
2022-12-26T18:07:30.834Z,11.90
2022-12-26T18:10:01.367Z,10.10
2022-12-26T18:15:01.634Z,12.70
2022-12-26T18:17:32.772Z,10.50
2022-12-26T18:20:01.711Z,9.10
2022-12-26T18:22:29.450Z,8.20
2022-12-26T18:24:57.324Z,8.40
2022-12-26T18:27:31.081Z,8.10
2022-12-26T18:29:59.941Z,7.20
2022-12-26T18:32:30.327Z,7.60
2022-12-26T18:34:58.823Z,8.60
2022-12-26T18:37:28.991Z,8.80
2022-12-26T18:39:56.977Z,6.20
2022-12-26T18:42:26.385Z,6.60
2022-12-26T18:44:54.445Z,6.50
2022-12-26T18:47:23.002Z,10.40
2022-12-26T18:49:50.680Z,6.50
2022-12-26T18:52:18.452Z,10.10
2022-12-26T18:54:46.069Z,8.70
2022-12-26T18:57:20.135Z,9.30
2022-12-26T18:59:48.238Z,9.10
2022-12-26T19:02:18.751Z,9.30
2022-12-26T19:04:49.975Z,10.80
2022-12-26T19:07:22.533Z,10.60
2022-12-26T19:09:55.641Z,9.40
2022-12-26T19:12:23.870Z,9.00
2022-12-26T19:14:52.607Z,8.60
2022-12-26T19:17:20.286Z,7.70
2022-12-26T19:19:47.991Z,7.80
2022-12-26T19:22:15.748Z,9.50
2022-12-26T19:24:45.151Z,10.60
2022-12-26T19:27:12.868Z,7.30
2022-12-26T19:29:40.586Z,9.40
2022-12-26T19:32:08.474Z,8.70
2022-12-26T19:34:36.133Z,5.90
2022-12-26T19:37:03.818Z,10.60
2022-12-26T19:39:31.604Z,9.80
2022-12-26T19:41:59.362Z,10.10
2022-12-26T19:44:29.252Z,7.70
2022-12-26T19:47:12.334Z,9.50
2022-12-26T19:49:42.101Z,7.10
2022-12-26T19:52:11.298Z,7.40
2022-12-26T19:54:39.144Z,10.50
2022-12-26T19:57:07.025Z,8.60
2022-12-26T19:59:34.756Z,13.60
2022-12-26T20:02:03.188Z,12.20
2022-12-26T20:04:31.101Z,11.70
2022-12-26T20:07:00.467Z,10.50
2022-12-26T20:09:28.292Z,11.10
2022-12-26T20:11:56.859Z,9.70
2022-12-26T20:14:26.731Z,10.50
2022-12-26T20:17:06.210Z,8.40
2022-12-26T20:19:35.880Z,11.30
2022-12-26T20:22:05.383Z,10.00
2022-12-26T20:27:01.275Z,11.70
2022-12-26T20:29:29.079Z,9.90
2022-12-26T20:31:58.075Z,9.70
2022-12-26T20:34:26.729Z,9.60
2022-12-26T20:36:54.461Z,9.30
2022-12-26T20:39:22.710Z,7.90
2022-12-26T20:41:50.504Z,8.20
2022-12-26T20:44:18.643Z,8.40
2022-12-26T20:46:46.740Z,8.20
2022-12-26T20:49:14.513Z,8.90
2022-12-26T20:51:44.060Z,10.30
2022-12-26T20:56:40.940Z,8.50
2022-12-26T20:59:08.850Z,9.20
2022-12-26T21:01:37.994Z,7.40
2022-12-26T21:04:06.636Z,10.20
2022-12-26T21:06:37.200Z,10.50
2022-12-26T21:09:06.568Z,12.10
2022-12-26T21:11:38.049Z,11.80
2022-12-26T21:14:11.121Z,9.90
2022-12-26T21:16:44.852Z,10.90
2022-12-26T21:19:15.578Z,9.90
2022-12-26T21:21:46.714Z,9.80
2022-12-26T21:24:23.104Z,9.90
2022-12-26T21:26:51.848Z,10.70
2022-12-26T21:29:23.657Z,9.00
2022-12-26T21:31:51.659Z,9.10
2022-12-26T21:34:21.683Z,8.80
2022-12-26T21:37:09.144Z,8.20
2022-12-26T21:39:37.707Z,8.60
2022-12-26T21:42:07.084Z,10.40
2022-12-26T21:44:36.776Z,9.90
2022-12-26T21:47:08.002Z,7.50
2022-12-26T21:49:36.732Z,8.30
2022-12-26T21:52:06.069Z,7.40
2022-12-26T21:54:53.125Z,7.80
2022-12-26T21:57:21.568Z,9.60
2022-12-26T21:59:58.812Z,7.70
2022-12-26T22:02:54.418Z,8.30
2022-12-26T22:05:25.210Z,6.60
2022-12-26T22:08:00.205Z,9.20
2022-12-26T22:10:49.220Z,7.80
2022-12-26T22:13:17.685Z,7.50
2022-12-26T22:16:03.302Z,7.50
2022-12-26T22:18:41.186Z,8.70
2022-12-26T22:21:20.437Z,9.80
2022-12-26T22:23:52.069Z,8.60
2022-12-26T22:26:22.326Z,11.10
2022-12-26T22:28:50.461Z,9.60
2022-12-26T22:31:20.196Z,7.60
2022-12-26T22:33:53.468Z,9.90
2022-12-26T22:36:21.145Z,9.40
2022-12-26T22:38:48.787Z,11.40
2022-12-26T22:41:16.538Z,11.70
2022-12-26T22:43:44.632Z,10.80
2022-12-26T22:46:13.857Z,11.10
2022-12-26T22:48:42.020Z,9.40
2022-12-26T22:51:15.307Z,9.20
2022-12-26T22:53:42.936Z,9.70
2022-12-26T22:56:11.656Z,9.50
2022-12-26T22:58:39.560Z,11.00
2022-12-26T23:01:13.440Z,11.10
2022-12-26T23:03:41.489Z,12.00
2022-12-26T23:06:27.445Z,9.70
2022-12-26T23:08:59.222Z,13.00
2022-12-26T23:11:34.785Z,9.00
2022-12-26T23:14:05.912Z,8.80
2022-12-26T23:16:51.174Z,9.50
2022-12-26T23:19:52.754Z,13.20
2022-12-26T23:22:20.585Z,11.60
2022-12-26T23:24:48.220Z,10.60
2022-12-26T23:27:34.472Z,10.20
2022-12-26T23:30:20.258Z,11.90
2022-12-26T23:32:53.086Z,10.20
2022-12-26T23:35:21.675Z,11.70
2022-12-26T23:37:50.194Z,7.70
2022-12-26T23:40:19.656Z,10.10
2022-12-26T23:42:47.729Z,11.70
2022-12-26T23:45:16.442Z,12.40
2022-12-26T23:47:45.649Z,9.50
2022-12-26T23:50:15.170Z,12.00
2022-12-26T23:55:11.951Z,14.20
2022-12-26T23:57:39.682Z,10.20
